createdAt,value
2023-11-09T00:01:19.747Z,98465.13
2023-11-09T00:03:47.010Z,98473.28
2023-11-09T00:06:14.475Z,98462.31
2023-11-09T00:08:44.633Z,98458.16
2023-11-09T00:11:12.065Z,98461.81
2023-11-09T00:13:39.394Z,98436.88
2023-11-09T00:16:12.822Z,98439.03
2023-11-09T00:18:40.040Z,98443.88
2023-11-09T00:21:07.679Z,98449.94
2023-11-09T00:23:35.139Z,98414.34
2023-11-09T00:26:05.360Z,98426.09
2023-11-09T00:28:32.798Z,98415.56
2023-11-09T00:31:00.088Z,98436.97
2023-11-09T00:33:27.512Z,98421.94
2023-11-09T00:35:57.736Z,98421.56
2023-11-09T00:38:25.181Z,98419.66
2023-11-09T00:40:53.055Z,98421.69
2023-11-09T00:43:20.391Z,98430.94
2023-11-09T00:45:47.805Z,98433.03
2023-11-09T00:48:18.360Z,98430.69
2023-11-09T00:55:42.285Z,98422.06
2023-11-09T01:24:57.032Z,98422.13
2023-11-09T01:31:59.248Z,98427.25
2023-11-09T01:34:26.857Z,98441.09
2023-11-09T01:36:55.268Z,98432.56
2023-11-09T01:39:25.687Z,98414.72
2023-11-09T01:41:53.402Z,98417.97
2023-11-09T01:44:21.956Z,98427.31
2023-11-09T01:46:54.714Z,98419.47
2023-11-09T01:49:22.284Z,98421.63
2023-11-09T01:51:50.507Z,98414.41
2023-11-09T01:54:20.090Z,98403.13
2023-11-09T01:56:48.202Z,98400.88
2023-11-09T01:59:18.104Z,98401.34
2023-11-09T02:01:46.777Z,98405.50
2023-11-09T02:04:14.682Z,98412.41
2023-11-09T02:06:43.080Z,98400.31
2023-11-09T02:09:11.184Z,98412.59
2023-11-09T02:11:39.480Z,98405.81
2023-11-09T02:14:07.274Z,98390.38
2023-11-09T02:16:35.492Z,98390.72
2023-11-09T02:19:02.981Z,98389.81
2023-11-09T02:21:31.320Z,98393.59
2023-11-09T02:24:01.074Z,98405.41
2023-11-09T02:26:28.713Z,98404.22
2023-11-09T02:28:56.248Z,98409.78
2023-11-09T02:31:23.542Z,98408.09
2023-11-09T02:33:50.904Z,98410.34
2023-11-09T02:36:18.646Z,98391.44
2023-11-09T02:38:46.753Z,98388.16
2023-11-09T02:41:14.052Z,98389.66
2023-11-09T02:43:44.496Z,98408.47
2023-11-09T02:46:13.049Z,98387.22
2023-11-09T02:48:41.757Z,98369.31
2023-11-09T02:51:09.608Z,98395.25
2023-11-09T02:53:42.972Z,98384.13
2023-11-09T02:56:12.891Z,98388.63
2023-11-09T02:58:41.882Z,98397.50
2023-11-09T03:01:09.291Z,98389.63
2023-11-09T03:03:36.572Z,98393.06
2023-11-09T03:06:04.374Z,98375.75
2023-11-09T03:08:32.987Z,98402.09
2023-11-09T03:11:00.464Z,98405.38
2023-11-09T03:13:28.406Z,98396.91
2023-11-09T03:15:55.657Z,98400.28
2023-11-09T03:18:22.922Z,98393.00
2023-11-09T03:20:51.197Z,98396.78
2023-11-09T03:23:19.155Z,98402.13
2023-11-09T03:25:46.487Z,98407.50
2023-11-09T03:28:13.756Z,98387.81
2023-11-09T03:30:41.031Z,98413.16
2023-11-09T03:33:08.236Z,98404.97
2023-11-09T03:35:35.481Z,98396.38
2023-11-09T03:38:02.821Z,98389.88
2023-11-09T03:40:30.391Z,98380.31
2023-11-09T03:42:58.782Z,98408.09
2023-11-09T03:45:26.089Z,98408.03
2023-11-09T03:47:55.028Z,98409.94
2023-11-09T03:50:22.428Z,98405.06
2023-11-09T03:52:51.767Z,98402.00
2023-11-09T03:55:19.382Z,98401.22
2023-11-09T03:57:46.670Z,98419.88
2023-11-09T04:00:14.290Z,98418.56
2023-11-09T04:02:45.082Z,98401.28
2023-11-09T04:05:14.611Z,98412.25
2023-11-09T04:07:46.083Z,98415.59
2023-11-09T04:10:15.757Z,98381.81
2023-11-09T04:12:46.727Z,98413.72
2023-11-09T04:15:13.945Z,98388.47
2023-11-09T04:17:41.531Z,98409.22
2023-11-09T04:20:09.621Z,98385.13
2023-11-09T04:22:37.339Z,98410.78
2023-11-09T04:25:05.637Z,98391.91
2023-11-09T04:27:36.129Z,98399.50
2023-11-09T04:30:04.752Z,98384.03
2023-11-09T04:32:33.576Z,98395.97
2023-11-09T04:35:00.942Z,98394.00
2023-11-09T04:37:32.953Z,98376.94
2023-11-09T04:40:00.483Z,98391.84
2023-11-09T04:55:56.217Z,98381.31
2023-11-09T04:58:42.858Z,98389.91
2023-11-09T05:01:28.885Z,98418.63
2023-11-09T05:04:25.053Z,98422.88
2023-11-09T05:06:56.719Z,98418.81
2023-11-09T05:09:29.165Z,98404.41
2023-11-09T05:11:56.585Z,98397.78
2023-11-09T05:14:24.341Z,98401.47
2023-11-09T05:16:51.759Z,98393.34
2023-11-09T05:19:19.254Z,98414.72
2023-11-09T05:21:46.915Z,98402.41
2023-11-09T05:24:18.373Z,98406.91
2023-11-09T05:26:51.523Z,98398.16
2023-11-09T05:29:20.087Z,98419.63
2023-11-09T05:31:47.694Z,98401.97
2023-11-09T05:34:14.981Z,98407.25
2023-11-09T05:36:42.514Z,98411.69
2023-11-09T05:39:11.782Z,98422.31
2023-11-09T05:41:40.834Z,98418.56
2023-11-09T05:44:09.233Z,98390.16
2023-11-09T05:46:38.203Z,98401.41
2023-11-09T05:49:06.351Z,98396.34
2023-11-09T05:51:33.781Z,98409.91
2023-11-09T05:54:01.262Z,98397.97
2023-11-09T05:56:31.999Z,98391.38
2023-11-09T05:58:59.390Z,98396.13
2023-11-09T06:01:32.162Z,98404.81
2023-11-09T06:04:04.496Z,98405.47
2023-11-09T06:06:33.120Z,98385.09
2023-11-09T06:09:00.961Z,98390.56
2023-11-09T06:11:33.331Z,98404.75
2023-11-09T06:14:05.993Z,98389.34
2023-11-09T06:16:34.952Z,98407.47
2023-11-09T06:19:05.234Z,98399.25
2023-11-09T06:21:36.025Z,98395.69
2023-11-09T06:24:03.904Z,98386.75
2023-11-09T06:26:31.353Z,98383.47
2023-11-09T06:28:58.708Z,98375.94
2023-11-09T06:31:28.243Z,98388.53
2023-11-09T06:33:57.142Z,98394.41
2023-11-09T06:36:25.037Z,98390.19
2023-11-09T06:38:53.149Z,98384.38
2023-11-09T06:41:20.414Z,98383.72
2023-11-09T06:43:47.665Z,98400.78
2023-11-09T06:46:15.180Z,98385.72
2023-11-09T06:48:49.130Z,98370.00
2023-11-09T06:51:17.204Z,98384.31
2023-11-09T06:53:44.977Z,98368.09
2023-11-09T06:56:12.826Z,98363.91
2023-11-09T06:58:40.307Z,98366.78
2023-11-09T07:01:09.113Z,98381.63
2023-11-09T07:03:36.742Z,98384.28
2023-11-09T07:06:08.006Z,98395.13
2023-11-09T07:08:36.056Z,98393.97
2023-11-09T07:11:04.455Z,98402.88
2023-11-09T07:13:33.082Z,98403.88
2023-11-09T07:16:09.835Z,98370.03
2023-11-09T07:18:38.922Z,98364.03
2023-11-09T07:21:23.858Z,98408.16
2023-11-09T07:24:00.893Z,98402.44
2023-11-09T07:26:28.690Z,98391.69
2023-11-09T07:28:56.193Z,98394.19
2023-11-09T07:31:23.629Z,98362.41
2023-11-09T07:33:51.542Z,98392.34
2023-11-09T07:36:20.136Z,98377.34
2023-11-09T07:38:48.009Z,98402.28
2023-11-09T07:41:16.566Z,98410.03
2023-11-09T07:43:54.666Z,98378.47
2023-11-09T07:50:11.449Z,98386.22
2023-11-09T07:52:39.312Z,98385.94
2023-11-09T07:55:11.559Z,98406.59
2023-11-09T07:57:40.683Z,98391.31
2023-11-09T08:00:12.470Z,98383.34
2023-11-09T08:02:40.532Z,98390.59
2023-11-09T08:05:17.801Z,98386.75
2023-11-09T08:07:48.166Z,98382.16
2023-11-09T08:10:15.827Z,98389.63
2023-11-09T08:12:43.685Z,98381.72
2023-11-09T08:15:15.786Z,98381.41
2023-11-09T08:17:44.289Z,98405.09
2023-11-09T08:20:16.963Z,98399.06
2023-11-09T08:22:46.930Z,98373.28
2023-11-09T08:25:21.510Z,98386.03
2023-11-09T08:27:49.326Z,98377.00
2023-11-09T08:30:17.447Z,98377.19
2023-11-09T08:32:49.900Z,98375.84
2023-11-09T08:35:51.547Z,98400.72
2023-11-09T08:41:39.089Z,98390.22
2023-11-09T08:44:08.221Z,98372.91
2023-11-09T08:46:37.274Z,98350.06
2023-11-09T08:49:04.929Z,98366.34
2023-11-09T08:51:35.789Z,98380.00
2023-11-09T08:54:03.167Z,98355.22
2023-11-09T08:56:31.448Z,98366.59
2023-11-09T08:58:59.106Z,98348.22
2023-11-09T09:01:30.139Z,98349.91
2023-11-09T09:03:58.000Z,98359.28
2023-11-09T09:06:25.586Z,98371.97
2023-11-09T09:08:54.325Z,98358.53
2023-11-09T09:11:21.901Z,98342.59
2023-11-09T09:13:50.276Z,98359.41
2023-11-09T09:16:20.262Z,98359.25
2023-11-09T09:18:50.362Z,98369.53
2023-11-09T09:21:19.358Z,98341.22
2023-11-09T09:23:47.441Z,98345.06
2023-11-09T09:26:17.514Z,98370.47
2023-11-09T09:28:50.762Z,98339.03
2023-11-09T09:31:20.747Z,98355.13
2023-11-09T09:37:15.769Z,98341.53
2023-11-09T09:39:44.246Z,98320.03
2023-11-09T09:42:16.866Z,98338.19
2023-11-09T09:44:46.834Z,98340.34
2023-11-09T09:47:15.892Z,98327.22
2023-11-09T09:49:47.943Z,98316.97
2023-11-09T09:52:17.982Z,98329.75
2023-11-09T09:54:48.730Z,98318.41
2023-11-09T09:57:18.138Z,98318.78
2023-11-09T09:59:47.025Z,98311.75
2023-11-09T10:02:16.814Z,98293.66
2023-11-09T10:04:46.322Z,98316.81
2023-11-09T10:07:17.393Z,98308.44
2023-11-09T10:09:48.255Z,98298.31
2023-11-09T10:12:17.336Z,98297.72
2023-11-09T10:14:44.863Z,98314.28
2023-11-09T10:17:15.408Z,98283.53
2023-11-09T10:19:48.945Z,98285.91
2023-11-09T10:22:25.313Z,98296.44
2023-11-09T10:24:55.480Z,98285.69
2023-11-09T10:27:34.064Z,98307.72
2023-11-09T10:33:54.440Z,98301.78
2023-11-09T10:36:24.322Z,98299.72
2023-11-09T10:38:57.173Z,98291.91
2023-11-09T10:41:53.768Z,98310.34
2023-11-09T10:44:24.100Z,98284.25
2023-11-09T10:46:57.582Z,98284.25
2023-11-09T10:49:36.926Z,98280.22
2023-11-09T10:52:11.092Z,98285.03
2023-11-09T10:54:41.733Z,98292.41
2023-11-09T10:57:11.308Z,98270.72
2023-11-09T10:59:43.539Z,98274.19
2023-11-09T11:02:25.171Z,98284.94
2023-11-09T11:04:57.520Z,98276.13
2023-11-09T11:07:39.801Z,98257.09
2023-11-09T11:10:15.970Z,98259.19
2023-11-09T11:12:45.482Z,98271.16
2023-11-09T11:15:15.902Z,98275.38
2023-11-09T11:18:04.534Z,98288.81
2023-11-09T11:20:44.069Z,98259.06
2023-11-09T11:23:32.252Z,98266.00
2023-11-09T11:29:40.838Z,98265.41
2023-11-09T11:32:20.601Z,98277.84
2023-11-09T11:34:59.160Z,98261.78
2023-11-09T11:37:27.791Z,98260.00
2023-11-09T11:39:55.469Z,98270.63
2023-11-09T11:42:27.810Z,98252.31
2023-11-09T11:44:59.256Z,98234.13
2023-11-09T11:47:31.863Z,98256.94
2023-11-09T11:50:02.121Z,98233.94
2023-11-09T11:52:38.645Z,98251.84
2023-11-09T11:55:11.942Z,98249.63
2023-11-09T11:58:11.743Z,98260.78
2023-11-09T12:00:41.976Z,98222.28
2023-11-09T12:03:11.615Z,98259.94
2023-11-09T12:05:42.119Z,98248.22
2023-11-09T12:08:15.832Z,98249.41
2023-11-09T12:10:44.398Z,98262.91
2023-11-09T12:14:00.249Z,98265.31
2023-11-09T12:16:28.551Z,98258.22
2023-11-09T12:19:02.279Z,98244.06
2023-11-09T12:21:36.066Z,98225.94
2023-11-09T12:24:04.914Z,98234.50
2023-11-09T12:26:35.714Z,98235.13
2023-11-09T12:29:10.705Z,98219.94
2023-11-09T12:31:39.896Z,98235.78
2023-11-09T12:34:27.352Z,98235.78
2023-11-09T12:36:59.928Z,98211.81
2023-11-09T12:39:32.236Z,98229.19
2023-11-09T12:42:36.261Z,98239.97
2023-11-09T12:45:22.285Z,98225.31
2023-11-09T12:50:38.270Z,98205.56
2023-11-09T12:53:10.198Z,98200.94
2023-11-09T12:55:38.766Z,98217.25
2023-11-09T12:58:06.545Z,98219.19
2023-11-09T13:00:35.381Z,98213.53
2023-11-09T13:03:05.635Z,98222.78
2023-11-09T13:08:27.130Z,98211.50
2023-11-09T13:11:02.800Z,98202.25
2023-11-09T13:13:36.206Z,98220.56
2023-11-09T13:16:16.927Z,98223.09
2023-11-09T13:19:12.851Z,98198.38
2023-11-09T13:21:44.622Z,98211.19
2023-11-09T13:24:14.169Z,98199.31
2023-11-09T13:26:48.237Z,98194.69
2023-11-09T13:29:24.939Z,98209.13
2023-11-09T13:31:59.768Z,98188.44
2023-11-09T13:34:44.832Z,98209.81
2023-11-09T13:37:16.273Z,98214.94
2023-11-09T13:39:52.561Z,98213.25
2023-11-09T13:42:36.284Z,98206.81
2023-11-09T13:48:29.709Z,98201.69
2023-11-09T13:51:04.453Z,98188.03
2023-11-09T13:53:37.641Z,98185.88
2023-11-09T13:56:14.827Z,98205.38
2023-11-09T13:58:49.229Z,98174.38
2023-11-09T14:04:21.216Z,98208.47
2023-11-09T14:06:51.244Z,98184.19
2023-11-09T14:09:40.540Z,98172.91
2023-11-09T14:12:11.381Z,98188.38
2023-11-09T14:14:50.651Z,98179.38
2023-11-09T14:17:18.903Z,98176.63
2023-11-09T14:19:58.952Z,98176.94
2023-11-09T14:23:14.147Z,98208.75
2023-11-09T14:25:46.737Z,98199.94
2023-11-09T14:28:16.456Z,98177.66
2023-11-09T14:30:49.103Z,98174.50
2023-11-09T14:33:25.547Z,98182.06
2023-11-09T14:36:06.935Z,98186.00
2023-11-09T14:38:34.612Z,98180.06
2023-11-09T14:44:17.684Z,98192.63
2023-11-09T14:47:44.907Z,98193.38
2023-11-09T14:50:25.169Z,98184.25
2023-11-09T14:52:55.869Z,98164.00
2023-11-09T14:55:32.860Z,98155.13
2023-11-09T15:01:33.824Z,98171.78
2023-11-09T15:04:17.208Z,98153.53
2023-11-09T15:06:48.573Z,98168.09
2023-11-09T15:09:21.265Z,98177.31
2023-11-09T15:11:52.512Z,98169.44
2023-11-09T15:14:23.312Z,98155.22
2023-11-09T15:17:14.386Z,98181.31
2023-11-09T15:19:43.803Z,98166.59
2023-11-09T15:22:21.438Z,98148.66
2023-11-09T15:24:50.033Z,98153.19
2023-11-09T15:27:29.681Z,98147.47
2023-11-09T15:30:40.995Z,98181.31
2023-11-09T15:33:15.989Z,98151.41
2023-11-09T15:35:52.867Z,98155.72
2023-11-09T15:38:25.873Z,98144.84
2023-11-09T15:41:17.360Z,98149.34
2023-11-09T15:43:49.709Z,98158.66
2023-11-09T15:46:20.628Z,98155.88
2023-11-09T15:48:52.600Z,98133.88
2023-11-09T15:51:36.851Z,98141.03
2023-11-09T15:54:09.736Z,98135.47
2023-11-09T15:56:47.632Z,98126.97
2023-11-09T15:59:15.206Z,98125.03
2023-11-09T16:01:45.237Z,98144.66
2023-11-09T16:04:17.291Z,98132.19
2023-11-09T16:06:46.297Z,98126.03
2023-11-09T16:09:29.480Z,98147.56
2023-11-09T16:12:04.212Z,98107.38
2023-11-09T16:14:41.897Z,98112.31
2023-11-09T16:17:13.973Z,98117.59
2023-11-09T16:19:43.111Z,98121.34
2023-11-09T16:44:16.224Z,98147.00
2023-11-09T16:51:15.792Z,98111.00
2023-11-09T16:54:08.257Z,98123.16
2023-11-09T16:57:03.807Z,98138.28
2023-11-09T16:59:34.605Z,98140.53
2023-11-09T17:02:12.363Z,98122.19
2023-11-09T17:04:43.935Z,98139.88
2023-11-09T17:07:13.297Z,98122.84
2023-11-09T17:09:44.701Z,98123.78
2023-11-09T17:12:22.120Z,98129.50
2023-11-09T17:14:51.189Z,98128.72
2023-11-09T17:17:23.992Z,98124.47
2023-11-09T17:19:52.594Z,98114.53
2023-11-09T17:22:20.972Z,98129.84
2023-11-09T17:24:50.503Z,98121.06
2023-11-09T17:27:22.158Z,98120.00
2023-11-09T17:29:51.748Z,98116.16
2023-11-09T17:32:20.254Z,98111.53
2023-11-09T17:34:51.276Z,98114.66
2023-11-09T17:37:29.621Z,98105.78
2023-11-09T17:40:02.598Z,98118.41
2023-11-09T17:42:49.029Z,98111.22
2023-11-09T17:45:19.690Z,98098.06
2023-11-09T17:51:30.451Z,98104.06
2023-11-09T17:54:03.619Z,98102.88
2023-11-09T17:56:31.724Z,98114.47
2023-11-09T17:59:04.884Z,98105.84
2023-11-09T18:01:43.767Z,98109.41
2023-11-09T18:04:12.599Z,98102.13
2023-11-09T18:06:40.731Z,98095.59
2023-11-09T18:09:13.886Z,98106.28
2023-11-09T18:12:17.985Z,98105.56
2023-11-09T18:19:09.919Z,98099.88
2023-11-09T18:29:19.076Z,98074.69
2023-11-09T18:31:59.811Z,98061.63
2023-11-09T18:34:48.372Z,98069.84
2023-11-09T18:37:26.948Z,98074.78
2023-11-09T18:39:58.418Z,98097.81
2023-11-09T18:42:26.136Z,98083.78
2023-11-09T18:44:54.509Z,98071.91
2023-11-09T18:47:35.487Z,98076.84
2023-11-09T18:53:11.052Z,98084.00
2023-11-09T18:55:43.313Z,98082.41
2023-11-09T18:58:10.843Z,98061.72
2023-11-09T19:00:38.254Z,98090.22
2023-11-09T19:05:55.532Z,98054.44
2023-11-09T19:09:32.750Z,98084.66
2023-11-09T19:19:35.339Z,98088.59
2023-11-09T19:24:46.556Z,98066.66
2023-11-09T19:27:14.328Z,98066.75
2023-11-09T19:29:44.924Z,98075.31
2023-11-09T19:32:21.829Z,98061.94
2023-11-09T19:34:56.116Z,98041.13
2023-11-09T19:48:11.537Z,98046.28
2023-11-09T19:51:29.744Z,98029.38
2023-11-09T19:53:59.550Z,98054.50
2023-11-09T19:56:51.901Z,98033.72
2023-11-09T20:04:03.373Z,98022.69
2023-11-09T20:06:32.067Z,98030.94
2023-11-09T20:25:16.701Z,98037.63
2023-11-09T20:31:06.002Z,97998.03
2023-11-09T20:37:54.806Z,98024.91
2023-11-09T20:40:25.398Z,97997.47
2023-11-09T20:43:05.516Z,98000.03
2023-11-09T20:45:36.890Z,98028.47
2023-11-09T20:48:08.000Z,98006.31
2023-11-09T20:50:52.290Z,98014.38
2023-11-09T20:53:26.373Z,97989.84
2023-11-09T20:55:54.058Z,97996.19
2023-11-09T20:58:24.081Z,97996.81
2023-11-09T21:01:08.727Z,97997.09
2023-11-09T21:04:06.773Z,98009.56
2023-11-09T21:06:57.394Z,98006.13
2023-11-09T21:09:30.339Z,98019.69
2023-11-09T21:11:58.772Z,97999.50
2023-11-09T21:14:34.750Z,98015.44
2023-11-09T21:17:02.368Z,98019.25
2023-11-09T21:19:33.605Z,97994.59
2023-11-09T21:22:02.277Z,98000.97
2023-11-09T21:24:30.029Z,98007.16
2023-11-09T21:26:59.301Z,97994.28
2023-11-09T21:29:26.931Z,98015.84
2023-11-09T21:31:54.723Z,98007.38
2023-11-09T21:34:23.614Z,98022.88
2023-11-09T21:36:57.241Z,98001.47
2023-11-09T21:39:26.953Z,98004.84
2023-11-09T21:41:54.697Z,98030.53
2023-11-09T21:44:25.932Z,97999.69
2023-11-09T21:46:53.584Z,98019.50
2023-11-09T21:49:21.055Z,98016.66
2023-11-09T21:51:53.022Z,98027.22
2023-11-09T21:54:24.306Z,97999.69
2023-11-09T21:57:02.074Z,98015.03
2023-11-09T21:59:36.353Z,98017.34
2023-11-09T22:02:08.348Z,98008.38
2023-11-09T22:04:39.812Z,98023.69
2023-11-09T22:07:07.991Z,98004.84
2023-11-09T22:09:35.869Z,98018.31
2023-11-09T22:12:04.728Z,97999.38
2023-11-09T22:14:32.518Z,98003.03
2023-11-09T22:17:05.637Z,98009.56
2023-11-09T22:19:33.297Z,98022.59
2023-11-09T22:22:01.122Z,98023.34
2023-11-09T22:24:30.289Z,98002.38
2023-11-09T22:26:57.761Z,98028.06
2023-11-09T22:29:25.154Z,98001.78
2023-11-09T22:31:56.054Z,98004.00
2023-11-09T22:34:31.200Z,98003.59
2023-11-09T22:36:58.939Z,98009.63
2023-11-09T22:39:29.468Z,98011.75
2023-11-09T22:41:57.072Z,98038.38
2023-11-09T22:44:24.740Z,98003.75
2023-11-09T22:46:52.193Z,98019.06
2023-11-09T22:49:21.777Z,98020.25
2023-11-09T22:51:49.566Z,98020.56
2023-11-09T22:54:17.168Z,98026.78
2023-11-09T22:56:44.862Z,98003.00
2023-11-09T22:59:12.514Z,98017.19
2023-11-09T23:01:43.239Z,98018.13
2023-11-09T23:04:11.320Z,98037.13
2023-11-09T23:06:45.323Z,98017.59
2023-11-09T23:09:13.908Z,98018.91
2023-11-09T23:11:41.811Z,98031.03
2023-11-09T23:14:11.623Z,98030.78
2023-11-09T23:16:39.264Z,98029.25
2023-11-09T23:19:07.083Z,98026.25
2023-11-09T23:21:40.797Z,98041.25
2023-11-09T23:24:09.448Z,98053.56
2023-11-09T23:26:36.920Z,98041.22
2023-11-09T23:29:05.357Z,98052.97
2023-11-09T23:31:32.843Z,98050.56
2023-11-09T23:34:02.091Z,98053.66
2023-11-09T23:36:30.541Z,98053.94
2023-11-09T23:38:58.074Z,98028.41
2023-11-09T23:41:25.613Z,98072.38
2023-11-09T23:43:53.017Z,98061.84
2023-11-09T23:46:20.679Z,98057.22
2023-11-09T23:48:48.733Z,98060.06
2023-11-09T23:51:20.986Z,98067.19
2023-11-09T23:53:48.404Z,98079.13
2023-11-09T23:56:16.006Z,98050.13
2023-11-09T23:58:44.099Z,98045.69
